Time;durP1;ratioP1;P1;durP2;ratioP2;P2;SDS_P1;SDS_P2;PMS_P1;PMS_P2;Temp;Humidity;BMP_temperature;BMP_pressure;BME280_temperature;BME280_humidity;BME280_pressure;Samples;Min_cycle;Max_cycle;Signal;HPM_P1;HPM_P2
2022/12/03 00:00:09;;;;;;;35.27;15.20;;;;;;;-145.18;100.00;46670.16;4995015;28;20054;-76
2022/12/03 00:02:34;;;;;;;36.20;16.27;;;;;;;-145.18;100.00;46666.25;5012122;28;20112;-76
2022/12/03 00:04:59;;;;;;;37.60;14.90;;;;;;;-145.18;100.00;46662.34;5012446;28;20756;-76
2022/12/03 00:07:25;;;;;;;34.43;15.43;;;;;;;-145.18;100.00;46654.53;5012213;28;20461;-76
2022/12/03 00:09:50;;;;;;;33.63;14.43;;;;;;;-145.18;100.00;46660.41;4995104;28;20037;-76
2022/12/03 00:12:15;;;;;;;38.83;15.37;;;;;;;-145.18;100.00;46664.31;5012152;28;20062;-76
2022/12/03 00:14:41;;;;;;;36.27;16.33;;;;;;;-145.18;100.00;46658.44;5012164;28;20495;-76
2022/12/03 00:17:06;;;;;;;34.07;16.27;;;;;;;-145.18;100.00;46650.63;5012419;28;20034;-76
2022/12/03 00:19:31;;;;;;;34.23;15.50;;;;;;;-145.18;100.00;46652.59;5012235;28;20061;-76
2022/12/03 00:21:57;;;;;;;39.27;15.77;;;;;;;-145.18;100.00;46652.59;5011995;28;20033;-76
2022/12/03 00:24:22;;;;;;;35.73;15.57;;;;;;;-145.18;100.00;46656.50;5011988;28;20033;-76
2022/12/03 00:26:47;;;;;;;38.93;15.53;;;;;;;-145.18;100.00;46648.69;4994407;28;20045;-76
2022/12/03 00:29:13;;;;;;;40.13;15.77;;;;;;;-145.18;100.00;46648.69;5010537;28;20421;-76
2022/12/03 00:31:38;;;;;;;36.73;15.43;;;;;;;-145.18;100.00;46656.50;5011859;28;20501;-76
2022/12/03 00:34:03;;;;;;;34.50;15.77;;;;;;;-145.18;100.00;46652.59;5011999;28;20037;-76
2022/12/03 00:36:29;;;;;;;36.97;16.73;;;;;;;-145.18;100.00;46652.59;5011743;28;20034;-76
2022/12/03 00:38:54;;;;;;;39.90;16.57;;;;;;;-145.18;100.00;46658.44;5011810;28;20244;-76
2022/12/03 00:41:20;;;;;;;36.37;15.57;;;;;;;-145.18;100.00;46650.63;5011486;28;20064;-76
2022/12/03 00:43:45;;;;;;;34.27;16.30;;;;;;;-145.18;100.00;46648.69;5011684;28;20044;-75
2022/12/03 00:46:10;;;;;;;37.93;16.23;;;;;;;-145.18;100.00;46644.78;5011614;28;20084;-76
2022/12/03 00:48:36;;;;;;;36.53;16.50;;;;;;;-145.18;100.00;46642.81;5011777;28;20074;-76
2022/12/03 00:51:01;;;;;;;36.77;16.50;;;;;;;-145.18;100.00;46648.69;4993735;28;20080;-76
2022/12/03 00:53:26;;;;;;;41.40;17.63;;;;;;;-145.18;100.00;46646.72;5011196;28;20086;-76
2022/12/03 00:55:52;;;;;;;39.67;17.60;;;;;;;-145.18;100.00;46642.81;5011762;28;20042;-76
2022/12/03 00:58:17;;;;;;;34.87;16.00;;;;;;;-145.18;100.00;46644.78;5011061;28;20080;-76
2022/12/03 01:00:43;;;;;;;37.30;16.37;;;;;;;-145.18;100.00;46635.00;5011880;28;20038;-76
2022/12/03 01:03:08;;;;;;;46.17;17.77;;;;;;;-145.18;100.00;46642.81;5011287;28;20033;-76
2022/12/03 01:05:34;;;;;;;39.53;17.03;;;;;;;-145.18;100.00;46640.88;5011243;28;20046;-75
2022/12/03 01:07:59;;;;;;;35.73;15.67;;;;;;;-145.18;100.00;46636.94;5011247;28;20052;-76
2022/12/03 01:10:25;;;;;;;38.87;17.03;;;;;;;-145.18;100.00;46640.88;5011405;28;20191;-76
2022/12/03 01:12:50;;;;;;;44.60;17.80;;;;;;;-145.18;100.00;46660.41;5011047;28;20096;-76
2022/12/03 01:15:15;;;;;;;38.30;16.57;;;;;;;-145.18;100.00;46660.41;5011068;28;20034;-76
2022/12/03 01:17:41;;;;;;;40.37;16.97;;;;;;;-145.18;100.00;46660.41;5011110;28;20144;-76
2022/12/03 01:20:07;;;;;;;40.10;17.20;;;;;;;-145.18;100.00;46638.91;5011155;28;20103;-76
2022/12/03 01:22:33;;;;;;;38.20;16.60;;;;;;;-145.18;100.00;46660.41;5010838;28;20042;-76
2022/12/03 01:24:58;;;;;;;39.10;17.73;;;;;;;-145.18;100.00;46660.41;5011256;28;20028;-76
2022/12/03 01:27:24;;;;;;;39.63;16.60;;;;;;;-145.18;100.00;46660.41;5010117;28;20061;-76
2022/12/03 01:29:49;;;;;;;40.37;17.87;;;;;;;-145.18;100.00;46660.41;5011066;28;20069;-76
2022/12/03 01:32:20;;;;;;;39.47;17.77;;;;;;;-145.18;100.00;46660.41;5010575;28;20095;-76
2022/12/03 01:34:48;;;;;;;41.05;17.10;;;;;;;-145.18;100.00;46660.41;5011013;28;20048;-76
2022/12/03 01:37:14;;;;;;;42.13;18.97;;;;;;;-145.18;100.00;46660.41;4993292;28;20030;-76
2022/12/03 01:39:40;;;;;;;41.87;19.17;;;;;;;-145.18;100.00;46660.41;5011144;28;20267;-76
2022/12/03 01:42:08;;;;;;;42.50;18.33;;;;;;;-145.18;100.00;46660.41;5010813;28;20271;-76
2022/12/03 01:44:35;;;;;;;41.17;19.47;;;;;;;-145.18;100.00;46660.41;5010729;28;20402;-75
2022/12/03 01:47:04;;;;;;;45.23;19.37;;;;;;;-145.18;100.00;46660.41;5010553;28;20271;-76
2022/12/03 01:49:40;;;;;;;45.65;20.02;;;;;;;-145.18;100.00;46660.41;5010663;28;20341;-76
2022/12/03 01:52:10;;;;;;;43.47;19.30;;;;;;;-145.18;100.00;46660.41;5010713;28;20103;-76
2022/12/03 01:54:44;;;;;;;47.73;20.47;;;;;;;-145.18;100.00;46660.41;5010503;28;20264;-75
2022/12/03 01:57:44;;;;;;;43.13;17.87;;;;;;;-145.18;100.00;46660.41;5010864;28;20382;-76
2022/12/03 02:00:18;;;;;;;45.33;18.58;;;;;;;-145.18;100.00;46660.41;5010948;28;20264;-76
2022/12/03 02:02:45;;;;;;;43.27;18.70;;;;;;;-145.18;100.00;46660.41;5010405;28;20030;-76
2022/12/03 02:05:23;;;;;;;44.73;21.10;;;;;;;-145.18;100.00;46660.41;5010276;28;20650;-76
2022/12/03 02:07:49;;;;;;;44.30;20.17;;;;;;;-145.18;100.00;46660.41;5010508;28;20280;-76
2022/12/03 02:10:17;;;;;;;38.93;16.93;;;;;;;-145.18;100.00;46660.41;5010602;28;20425;-76
2022/12/03 02:12:47;;;;;;;44.87;19.17;;;;;;;-145.18;100.00;46660.41;5010458;28;20072;-76
2022/12/03 02:15:13;;;;;;;43.70;20.40;;;;;;;-145.18;100.00;46660.41;5010891;28;20267;-76
2022/12/03 02:17:39;;;;;;;46.40;19.77;;;;;;;-145.18;100.00;46660.41;5010548;28;20803;-76
2022/12/03 02:20:07;;;;;;;46.20;20.50;;;;;;;-145.18;100.00;46658.44;5010530;28;20034;-76
2022/12/03 02:22:51;;;;;;;42.90;19.50;;;;;;;-145.18;100.00;46654.53;4992546;28;20579;-76
2022/12/03 02:25:20;;;;;;;44.90;18.47;;;;;;;-145.18;100.00;46660.41;5010447;28;20274;-76
2022/12/03 02:27:46;;;;;;;48.60;20.33;;;;;;;-145.18;100.00;46660.41;4992401;28;20947;-76
2022/12/03 02:30:16;;;;;;;42.67;18.13;;;;;;;-145.18;100.00;46660.41;5010576;28;20272;-76
2022/12/03 02:32:41;;;;;;;49.37;21.23;;;;;;;-145.18;100.00;46658.44;5010362;28;20267;-76
2022/12/03 02:35:13;;;;;;;46.37;20.77;;;;;;;-145.18;100.00;46660.41;5010652;28;20321;-76
2022/12/03 02:37:40;;;;;;;44.55;19.80;;;;;;;-145.18;100.00;46660.41;5011771;28;20037;-75
2022/12/03 02:40:11;;;;;;;45.63;19.53;;;;;;;-145.18;100.00;46660.41;5014242;28;20061;-76
2022/12/03 02:42:37;;;;;;;50.77;20.93;;;;;;;-145.18;100.00;46658.44;5013772;28;20262;-76
2022/12/03 02:45:23;;;;;;;44.13;19.17;;;;;;;-145.18;100.00;46658.44;5014083;28;20299;-76
2022/12/03 02:47:53;;;;;;;42.72;19.17;;;;;;;-145.18;100.00;46658.44;5013834;28;20751;-76
2022/12/03 02:50:22;;;;;;;45.33;20.20;;;;;;;-145.18;100.00;46658.44;5013880;28;20475;-76
2022/12/03 02:52:49;;;;;;;48.13;19.47;;;;;;;-145.18;100.00;46660.41;5013744;28;20325;-76
2022/12/03 02:55:15;;;;;;;44.00;20.10;;;;;;;-145.18;100.00;46660.41;5013790;28;20325;-76
2022/12/03 02:57:44;;;;;;;46.17;20.67;;;;;;;-145.18;100.00;46658.44;5013847;28;20283;-76
2022/12/03 03:00:10;;;;;;;49.30;19.70;;;;;;;-145.18;100.00;46656.50;5014049;28;20275;-76
2022/12/03 03:02:37;;;;;;;47.33;20.70;;;;;;;-145.18;100.00;46660.41;5238869;23;20304;-75
2022/12/03 03:05:05;;;;;;;48.77;20.90;;;;;;;-145.18;100.00;46656.50;4988840;28;20327;-75
2022/12/03 03:07:31;;;;;;;50.27;20.13;;;;;;;-145.18;100.00;46658.44;4993724;28;20272;-75
2022/12/03 03:09:58;;;;;;;50.20;21.67;;;;;;;-145.18;100.00;46660.41;4993562;28;20288;-75
2022/12/03 03:12:23;;;;;;;48.95;21.35;;;;;;;-145.18;100.00;46660.41;4976413;28;20039;-75
2022/12/03 03:14:48;;;;;;;46.17;20.83;;;;;;;-145.18;100.00;46660.41;4994121;28;20037;-75
2022/12/03 03:17:14;;;;;;;46.13;19.83;;;;;;;-145.18;100.00;46660.41;4993615;28;20034;-75
2022/12/03 03:19:39;;;;;;;47.20;20.53;;;;;;;-145.18;100.00;46660.41;4994098;28;20088;-75
2022/12/03 03:22:04;;;;;;;46.07;21.47;;;;;;;-145.18;100.00;46660.41;4993346;28;20041;-75
2022/12/03 03:24:31;;;;;;;48.43;20.23;;;;;;;-145.18;100.00;46660.41;4976415;28;20113;-75
2022/12/03 03:26:56;;;;;;;46.30;19.63;;;;;;;-145.18;100.00;46660.41;4993208;28;20026;-75
2022/12/03 03:29:22;;;;;;;48.07;21.33;;;;;;;-145.18;100.00;46660.41;4993686;28;20300;-75
2022/12/03 03:31:48;;;;;;;47.17;21.00;;;;;;;-145.18;100.00;46660.41;4993560;28;20077;-75
2022/12/03 03:34:14;;;;;;;49.33;20.60;;;;;;;-145.18;100.00;46660.41;4993530;28;20438;-75
2022/12/03 03:36:40;;;;;;;44.87;19.83;;;;;;;-145.18;100.00;46660.41;4993710;28;20149;-75
2022/12/03 03:39:06;;;;;;;45.87;19.93;;;;;;;-145.18;100.00;46660.41;4975736;28;20382;-75
2022/12/03 03:41:32;;;;;;;50.20;21.43;;;;;;;-145.18;100.00;46660.41;4993633;28;20030;-75
2022/12/03 03:43:58;;;;;;;47.73;20.47;;;;;;;-145.18;100.00;46677.97;4993085;28;20467;-75
2022/12/03 03:46:25;;;;;;;52.77;20.43;;;;;;;-145.18;100.00;46677.97;4993434;28;20621;-75
2022/12/03 03:48:51;;;;;;;47.17;20.13;;;;;;;-145.18;100.00;46644.78;4974953;28;20295;-75
2022/12/03 03:51:17;;;;;;;46.03;19.17;;;;;;;-145.18;100.00;46679.94;4993235;28;20276;-75
2022/12/03 03:53:48;;;;;;;46.83;21.30;;;;;;;-145.18;100.00;46644.78;4975649;28;20062;-75
2022/12/03 03:56:16;;;;;;;48.13;20.70;;;;;;;-145.18;100.00;46648.69;4975636;28;20799;-75
2022/12/03 03:58:42;;;;;;;52.65;21.17;;;;;;;-145.18;100.00;46650.63;4992910;28;20358;-75
2022/12/03 04:01:09;;;;;;;53.03;21.13;;;;;;;-145.18;100.00;46646.72;4993007;28;20092;-75
2022/12/03 04:03:35;;;;;;;52.73;20.60;;;;;;;-145.18;100.00;46646.72;4973314;28;20046;-75
2022/12/03 04:06:00;;;;;;;52.73;22.97;;;;;;;-145.18;100.00;46648.69;4973316;28;20268;-75
2022/12/03 04:08:26;;;;;;;55.17;22.53;;;;;;;-145.18;100.00;46652.59;4956183;28;20081;-75
2022/12/03 04:13:35;;;;;;;48.07;21.00;;;;;;;-145.18;100.00;46658.44;4973587;28;20570;-75
2022/12/03 04:16:00;;;;;;;50.63;20.47;;;;;;;-145.18;100.00;46662.34;4973466;28;20276;-75
2022/12/03 04:18:44;;;;;;;50.13;23.00;;;;;;;-145.18;100.00;46660.41;4973109;28;20574;-75
2022/12/03 04:23:59;;;;;;;51.47;22.07;;;;;;;-145.18;100.00;46652.59;4973197;28;20272;-75
2022/12/03 04:29:08;;;;;;;50.37;21.20;;;;;;;-145.18;100.00;46677.97;4972992;28;20177;-75
2022/12/03 04:37:02;;;;;;;51.40;22.67;;;;;;;-145.18;100.00;46660.41;4973220;28;20637;-74
2022/12/03 04:39:27;;;;;;;52.77;22.20;;;;;;;-145.18;100.00;46660.41;4973045;28;20281;-75
2022/12/03 04:41:53;;;;;;;51.80;23.53;;;;;;;-145.18;100.00;46660.41;4972988;28;20138;-75
2022/12/03 04:44:37;;;;;;;46.90;21.47;;;;;;;-145.18;100.00;46660.41;4971426;28;20085;-74
2022/12/03 04:47:14;;;;;;;50.60;22.17;;;;;;;-145.18;100.00;46660.41;4972868;28;20085;-77
2022/12/03 04:49:45;;;;;;;45.97;19.43;;;;;;;-145.18;100.00;46660.41;4973055;28;20296;-76
2022/12/03 04:52:12;;;;;;;47.40;19.57;;;;;;;-145.18;100.00;46660.41;4972641;28;20328;-77
2022/12/03 04:54:38;;;;;;;48.93;20.90;;;;;;;-145.18;100.00;46658.44;4972858;28;20269;-77
2022/12/03 04:57:04;;;;;;;51.90;21.37;;;;;;;-145.18;100.00;46660.41;4971583;28;20281;-77
2022/12/03 04:59:30;;;;;;;51.20;21.83;;;;;;;-145.18;100.00;46658.44;4972892;28;20308;-77
2022/12/03 05:01:56;;;;;;;50.07;21.17;;;;;;;-145.18;100.00;46660.41;4971478;28;20304;-78
2022/12/03 05:04:22;;;;;;;46.17;20.77;;;;;;;-145.18;100.00;46658.44;4972679;28;20039;-77
2022/12/03 05:06:47;;;;;;;46.73;20.80;;;;;;;-145.18;100.00;46660.41;4972647;28;20062;-77
2022/12/03 05:09:13;;;;;;;47.43;21.27;;;;;;;-145.18;100.00;46660.41;4972164;28;20093;-75
2022/12/03 05:11:39;;;;;;;47.77;21.43;;;;;;;-145.18;100.00;46660.41;4972862;28;20471;-75
2022/12/03 05:14:05;;;;;;;41.30;17.93;;;;;;;-145.18;100.00;46656.50;4972425;28;20121;-74
2022/12/03 05:16:30;;;;;;;44.43;19.73;;;;;;;-145.18;100.00;46660.41;4972777;28;20352;-75
2022/12/03 05:18:56;;;;;;;47.47;20.80;;;;;;;-145.18;100.00;46660.41;4972496;28;20077;-75
2022/12/03 05:21:21;;;;;;;47.57;18.70;;;;;;;-145.18;100.00;46660.41;4971842;28;20398;-75
2022/12/03 05:23:47;;;;;;;43.67;18.40;;;;;;;-145.18;100.00;46660.41;4955619;28;20046;-75
2022/12/03 05:26:12;;;;;;;40.77;18.53;;;;;;;-145.18;100.00;46660.41;4972751;28;20090;-77
2022/12/03 05:28:38;;;;;;;41.43;18.00;;;;;;;-145.18;100.00;46640.88;4955611;28;20451;-77
2022/12/03 05:31:18;;;;;;;41.13;18.57;;;;;;;-145.18;100.00;46635.00;4940046;28;20064;-75
2022/12/03 05:33:44;;;;;;;41.37;18.60;;;;;;;-145.18;100.00;46636.94;4955632;28;20388;-75
2022/12/03 05:36:09;;;;;;;33.63;14.83;;;;;;;-145.18;100.00;46642.81;4972907;28;20479;-77
2022/12/03 05:38:35;;;;;;;45.30;20.33;;;;;;;-145.18;100.00;46650.63;4973223;28;20034;-77
2022/12/03 05:41:00;;;;;;;40.20;19.40;;;;;;;-145.18;100.00;46650.63;4972657;28;20058;-77
2022/12/03 05:43:25;;;;;;;41.00;17.43;;;;;;;-145.18;100.00;46642.81;4973153;28;20035;-77
2022/12/03 05:45:51;;;;;;;44.70;18.57;;;;;;;-145.18;100.00;46646.72;4972934;28;20043;-77
2022/12/03 05:48:16;;;;;;;42.47;17.90;;;;;;;-145.18;100.00;46648.69;4972697;28;20049;-77
2022/12/03 05:50:44;;;;;;;42.27;18.50;;;;;;;-145.18;100.00;46654.53;4973274;28;20042;-77
2022/12/03 05:53:10;;;;;;;39.40;17.43;;;;;;;-145.18;100.00;46650.63;4972542;28;20486;-77
2022/12/03 05:55:36;;;;;;;39.03;17.37;;;;;;;-145.18;100.00;46644.78;4971790;28;20273;-77
2022/12/03 05:58:02;;;;;;;38.20;17.97;;;;;;;-145.18;100.00;46656.50;4972574;28;20323;-77
2022/12/03 06:00:30;;;;;;;39.80;18.17;;;;;;;-145.18;100.00;46650.63;4973321;28;20030;-77
2022/12/03 06:02:56;;;;;;;36.10;15.73;;;;;;;-145.18;100.00;46656.50;4972683;28;20074;-76
2022/12/03 06:05:22;;;;;;;30.43;14.80;;;;;;;-145.18;100.00;46660.41;4971700;28;20304;-77
2022/12/03 06:07:49;;;;;;;36.08;16.05;;;;;;;-145.18;100.00;46674.06;4972761;28;20743;-77
2022/12/03 06:10:18;;;;;;;39.43;17.27;;;;;;;-145.18;100.00;46666.25;4971122;28;20480;-77
2022/12/03 06:12:43;;;;;;;35.33;16.30;;;;;;;-145.18;100.00;46668.22;4974455;28;20269;-77
2022/12/03 06:15:10;;;;;;;38.50;17.93;;;;;;;-145.18;100.00;46676.03;4977061;28;20279;-77
2022/12/03 06:17:35;;;;;;;33.83;14.37;;;;;;;-145.18;100.00;46674.06;4976624;28;20030;-76
2022/12/03 06:20:01;;;;;;;31.23;14.80;;;;;;;-145.18;100.00;46660.41;4976795;28;20780;-77
2022/12/03 06:22:26;;;;;;;34.23;15.40;;;;;;;-145.18;100.00;46666.25;4976859;28;20122;-77
2022/12/03 06:24:52;;;;;;;37.57;16.60;;;;;;;-145.18;100.00;46672.13;4976748;28;20039;-77
2022/12/03 06:27:17;;;;;;;36.63;16.70;;;;;;;-145.18;100.00;46662.34;4976728;28;20045;-77
2022/12/03 06:29:43;;;;;;;36.67;17.07;;;;;;;-145.18;100.00;46666.25;4976249;28;20042;-78
2022/12/03 06:32:08;;;;;;;35.57;17.00;;;;;;;-145.18;100.00;46660.41;4974230;28;20495;-77
2022/12/03 06:34:34;;;;;;;35.43;15.77;;;;;;;-145.18;100.00;46668.22;4975736;28;20022;-77
2022/12/03 06:36:59;;;;;;;41.27;16.40;;;;;;;-145.18;100.00;46668.22;4958707;28;20126;-76
2022/12/03 06:39:25;;;;;;;40.27;16.80;;;;;;;-145.18;100.00;46679.94;4961150;28;20042;-76
2022/12/03 06:41:50;;;;;;;38.43;17.73;;;;;;;-145.18;100.00;46670.16;4986250;28;20064;-77
2022/12/03 06:44:16;;;;;;;28.60;14.67;;;;;;;-145.18;100.00;46672.13;4993658;28;20547;-77
2022/12/03 06:46:41;;;;;;;41.33;17.07;;;;;;;-145.18;100.00;46670.16;4993959;28;20452;-77
2022/12/03 06:49:09;;;;;;;37.03;16.27;;;;;;;-145.18;100.00;46668.22;4993468;28;20038;-77
2022/12/03 06:51:35;;;;;;;40.22;16.90;;;;;;;-145.18;100.00;46664.31;4993129;28;20046;-77
2022/12/03 06:54:01;;;;;;;39.47;16.13;;;;;;;-145.18;100.00;46668.22;4992944;28;20520;-77
2022/12/03 06:56:27;;;;;;;39.28;16.65;;;;;;;-145.18;100.00;46670.16;4995252;28;20034;-77
2022/12/03 06:58:53;;;;;;;34.73;14.00;;;;;;;-145.18;100.00;46660.41;4994658;28;20034;-74
2022/12/03 07:01:18;;;;;;;44.33;18.03;;;;;;;-145.18;100.00;46664.31;4977181;28;20031;-76
2022/12/03 07:03:43;;;;;;;40.50;18.37;;;;;;;-145.18;100.00;46666.25;4994676;28;20081;-77
2022/12/03 07:06:09;;;;;;;40.53;17.37;;;;;;;-145.18;100.00;46662.34;4994372;28;20053;-76
2022/12/03 07:08:34;;;;;;;43.20;20.03;;;;;;;-145.18;100.00;46662.34;4994224;28;20038;-77
2022/12/03 07:10:59;;;;;;;42.80;19.80;;;;;;;-145.18;100.00;46662.34;4994371;28;20030;-77
2022/12/03 07:13:25;;;;;;;44.60;18.23;;;;;;;-145.18;100.00;46652.59;4976891;28;20062;-77
2022/12/03 07:15:51;;;;;;;50.20;18.07;;;;;;;-145.18;100.00;46654.53;4987471;28;20035;-74
2022/12/03 07:18:16;;;;;;;43.43;18.60;;;;;;;-145.18;100.00;46648.69;4970128;28;20049;-77
2022/12/03 07:20:41;;;;;;;45.63;20.43;;;;;;;-145.18;100.00;46648.69;4955575;29;20392;-77
2022/12/03 07:23:07;;;;;;;40.97;18.57;;;;;;;-145.18;100.00;46644.78;4957412;28;20464;-77
2022/12/03 07:25:32;;;;;;;44.87;18.53;;;;;;;-145.18;100.00;46638.91;4954520;29;20457;-77
2022/12/03 07:27:57;;;;;;;45.03;19.07;;;;;;;-145.18;100.00;46640.88;4954162;28;20043;-77
2022/12/03 07:30:24;;;;;;;42.67;19.07;;;;;;;-145.18;100.00;46635.00;4943357;28;20038;-77
2022/12/03 07:32:49;;;;;;;42.80;19.83;;;;;;;-145.18;100.00;46660.41;4964815;28;20020;-77
2022/12/03 07:35:15;;;;;;;43.40;19.00;;;;;;;-145.18;100.00;46660.41;4964391;28;20042;-77
2022/12/03 07:37:40;;;;;;;45.50;19.73;;;;;;;-145.18;100.00;46660.41;4963312;28;20038;-77
2022/12/03 07:40:06;;;;;;;46.83;21.43;;;;;;;-145.18;100.00;46660.41;4973878;28;20093;-75
2022/12/03 07:42:32;;;;;;;47.30;21.60;;;;;;;-145.18;100.00;46660.41;4993173;28;20031;-77
2022/12/03 07:44:57;;;;;;;52.47;20.47;;;;;;;-145.18;100.00;46660.41;4992889;28;20035;-75
2022/12/03 07:47:22;;;;;;;50.27;23.67;;;;;;;-145.18;100.00;46660.41;4993573;28;20088;-74
2022/12/03 07:49:48;;;;;;;50.33;20.03;;;;;;;-145.18;100.00;46658.44;4987832;28;20077;-74
2022/12/03 07:52:13;;;;;;;56.07;23.77;;;;;;;-145.18;100.00;46660.41;4984006;28;20038;-77
2022/12/03 07:54:38;;;;;;;50.87;21.07;;;;;;;-145.18;100.00;46660.41;4952503;29;20114;-77
2022/12/03 07:57:04;;;;;;;49.70;21.00;;;;;;;-145.18;100.00;46660.41;4936629;28;20070;-77
2022/12/03 07:59:29;;;;;;;52.93;22.43;;;;;;;-145.18;100.00;46660.41;4954209;29;20039;-77
2022/12/03 08:01:55;;;;;;;49.87;22.57;;;;;;;-145.18;100.00;46658.44;4953177;28;20078;-77
2022/12/03 08:04:20;;;;;;;53.47;22.10;;;;;;;-145.18;100.00;46660.41;4972481;28;20130;-76
2022/12/03 08:06:46;;;;;;;54.93;23.73;;;;;;;-145.18;100.00;46660.41;4973314;28;20045;-76
2022/12/03 08:09:12;;;;;;;55.00;24.15;;;;;;;-145.18;100.00;46654.53;4974910;28;20129;-76
2022/12/03 08:11:37;;;;;;;58.10;23.63;;;;;;;-145.18;100.00;46660.41;4992883;28;20583;-76
2022/12/03 08:14:12;;;;;;;48.63;22.43;;;;;;;-145.18;100.00;46660.41;4960224;28;20039;-76
2022/12/03 08:16:39;;;;;;;49.65;22.77;;;;;;;-145.18;100.00;46656.50;4954014;29;20500;-75
2022/12/03 08:19:09;;;;;;;50.27;22.60;;;;;;;-145.18;100.00;46654.53;4953592;28;20045;-75
2022/12/03 08:21:36;;;;;;;52.13;23.87;;;;;;;-145.18;100.00;46658.44;4953203;29;20270;-75
2022/12/03 08:24:10;;;;;;;52.65;24.50;;;;;;;-145.18;100.00;46660.41;4953163;28;20270;-75
2022/12/03 08:26:35;;;;;;;56.88;22.52;;;;;;;-145.18;100.00;46660.41;4953605;29;20035;-76
2022/12/03 08:29:01;;;;;;;53.77;22.57;;;;;;;-145.18;100.00;46660.41;4953202;28;20054;-76
2022/12/03 08:31:26;;;;;;;48.20;19.93;;;;;;;-145.18;100.00;46660.41;4960187;28;20464;-76
2022/12/03 08:33:54;;;;;;;46.63;21.20;;;;;;;-145.18;100.00;46660.41;4961394;28;20089;-76
2022/12/03 08:36:25;;;;;;;47.80;21.30;;;;;;;-145.18;100.00;46660.41;4958198;28;20078;-76
2022/12/03 08:38:56;;;;;;;47.80;20.10;;;;;;;-145.18;100.00;46660.41;4960852;28;20050;-76
2022/12/03 08:44:28;;;;;;;60.53;20.37;;;;;;;-145.18;100.00;46677.97;4963941;28;20077;-76
2022/12/03 08:47:06;;;;;;;46.43;18.07;;;;;;;-145.18;100.00;46679.94;4962439;28;20816;-76
2022/12/03 08:49:31;;;;;;;44.72;17.33;;;;;;;-145.18;100.00;46679.94;4960126;28;21033;-76
2022/12/03 08:51:59;;;;;;;46.53;19.23;;;;;;;-145.18;100.00;46644.78;4967963;28;20035;-76
2022/12/03 08:54:25;;;;;;;45.37;18.83;;;;;;;-145.18;100.00;46652.59;4942957;28;20038;-76
2022/12/03 08:56:51;;;;;;;49.05;19.95;;;;;;;-145.18;100.00;46656.50;4961936;28;20273;-76
2022/12/03 08:59:31;;;;;;;41.93;18.70;;;;;;;-145.18;100.00;46660.41;4962485;28;20031;-76
2022/12/03 09:01:58;;;;;;;43.38;17.48;;;;;;;-145.18;100.00;46658.44;4961879;28;20035;-76
2022/12/03 09:04:29;;;;;;;43.20;19.05;;;;;;;-145.18;100.00;46662.34;4962433;28;20043;-76
2022/12/03 09:06:56;;;;;;;43.85;18.35;;;;;;;-145.18;100.00;46666.25;4973054;28;20067;-76
2022/12/03 09:09:22;;;;;;;46.38;18.67;;;;;;;-145.18;100.00;46668.22;4958436;28;20028;-76
2022/12/03 09:11:48;;;;;;;43.63;17.10;;;;;;;-145.18;100.00;46672.13;4944503;28;20045;-75
2022/12/03 09:14:14;;;;;;;45.25;19.17;;;;;;;-145.18;100.00;46677.97;4956936;28;20314;-75
2022/12/03 09:16:39;;;;;;;48.90;20.77;;;;;;;-145.18;100.00;46683.84;4951118;28;20039;-75
2022/12/03 09:19:05;;;;;;;44.57;18.23;;;;;;;-145.18;100.00;46689.69;4951039;28;20097;-75
2022/12/03 09:21:31;;;;;;;43.13;18.53;;;;;;;-145.18;100.00;46685.78;4951415;28;20145;-75
2022/12/03 09:23:57;;;;;;;49.77;20.47;;;;;;;-145.18;100.00;46687.75;4951378;28;20066;-75
2022/12/03 09:26:22;;;;;;;54.60;20.83;;;;;;;-145.18;100.00;46687.75;4918692;29;20279;-76
2022/12/03 09:28:47;;;;;;;49.33;20.10;;;;;;;-145.18;100.00;46697.50;4950426;28;20089;-76
2022/12/03 09:31:15;;;;;;;56.40;21.90;;;;;;;-145.18;100.00;46699.47;4951089;28;20059;-73
2022/12/03 09:33:40;;;;;;;58.90;22.90;;;;;;;-145.18;100.00;46699.47;4933861;29;20024;-75
2022/12/03 09:36:06;;;;;;;57.97;22.43;;;;;;;-145.18;100.00;46701.41;4951148;29;20284;-75
2022/12/03 09:38:32;;;;;;;56.80;22.30;;;;;;;-145.18;100.00;46699.47;4951068;28;20041;-75
2022/12/03 09:40:58;;;;;;;61.87;22.17;;;;;;;-145.18;100.00;46699.47;4950390;29;20385;-75
2022/12/03 09:43:26;;;;;;;54.53;20.53;;;;;;;-145.18;100.00;46697.50;4960271;28;20056;-75
2022/12/03 09:45:51;;;;;;;59.63;23.40;;;;;;;-145.18;100.00;46693.59;4940828;28;20686;-75
2022/12/03 09:48:19;;;;;;;60.90;23.20;;;;;;;-145.18;100.00;46695.56;4960986;28;20297;-75
2022/12/03 09:50:45;;;;;;;56.83;23.00;;;;;;;-145.18;100.00;46689.69;4958801;28;20039;-75
2022/12/03 09:53:17;;;;;;;57.80;21.20;;;;;;;-145.18;100.00;46691.66;4959310;28;20277;-76
2022/12/03 09:55:45;;;;;;;55.17;22.33;;;;;;;-145.18;100.00;46683.84;4959221;28;20113;-75
2022/12/03 09:58:13;;;;;;;50.20;19.83;;;;;;;-145.18;100.00;46674.06;4959589;28;20265;-75
2022/12/03 10:00:40;;;;;;;55.70;21.17;;;;;;;-145.18;100.00;46674.06;4958540;28;20307;-75
2022/12/03 10:03:06;;;;;;;59.03;21.03;;;;;;;-145.18;100.00;46681.88;4937600;29;20292;-75
2022/12/03 10:05:33;;;;;;;58.20;21.67;;;;;;;-145.18;100.00;46672.13;4941217;29;20267;-75
2022/12/03 10:08:09;;;;;;;63.42;23.50;;;;;;;-145.18;100.00;46672.13;4940231;28;20262;-75
2022/12/03 10:10:35;;;;;;;61.70;23.00;;;;;;;-145.18;100.00;46685.78;4941903;29;20028;-75
2022/12/03 10:13:02;;;;;;;64.20;22.63;;;;;;;-145.18;100.00;46687.75;4941314;28;20464;-75
2022/12/03 10:15:28;;;;;;;65.60;22.77;;;;;;;-145.18;100.00;46689.69;4941002;29;20281;-75
2022/12/03 10:17:53;;;;;;;70.30;23.37;;;;;;;-145.18;100.00;46697.50;4937779;28;20274;-75
2022/12/03 10:20:21;;;;;;;70.53;23.20;;;;;;;-145.18;100.00;46699.47;4936746;29;20481;-75
2022/12/03 10:22:47;;;;;;;66.50;23.65;;;;;;;-145.18;100.00;46703.38;4936102;28;20035;-75
2022/12/03 10:25:22;;;;;;;68.57;24.92;;;;;;;-145.18;100.00;46703.38;4943676;29;20126;-75
2022/12/03 10:28:02;;;;;;;68.50;22.40;;;;;;;-145.18;100.00;46705.31;4950459;28;20031;-75
2022/12/03 10:30:28;;;;;;;68.30;23.50;;;;;;;-145.18;100.00;46701.41;4949544;28;20332;-76
2022/12/03 10:32:56;;;;;;;63.67;22.90;;;;;;;-145.18;100.00;46705.31;4949875;28;20273;-75
2022/12/03 10:35:36;;;;;;;69.23;24.60;;;;;;;-145.18;100.00;46705.31;4949988;28;20344;-75
2022/12/03 10:38:17;;;;;;;65.77;23.40;;;;;;;-145.18;100.00;46697.50;4950391;28;20272;-75
2022/12/03 10:40:43;;;;;;;63.57;21.67;;;;;;;-145.18;100.00;46693.59;4950660;28;20280;-75
2022/12/03 10:43:21;;;;;;;71.60;24.43;;;;;;;-145.18;100.00;46687.75;4950496;28;20754;-75
2022/12/03 10:45:49;;;;;;;70.15;25.05;;;;;;;-145.18;100.00;46695.56;4950791;28;20027;-75
2022/12/03 10:48:26;;;;;;;74.53;25.33;;;;;;;-145.18;100.00;46687.75;4950195;28;20031;-76
2022/12/03 10:50:52;;;;;;;64.15;23.42;;;;;;;-145.18;100.00;46683.84;4950768;28;20254;-75
2022/12/03 10:53:20;;;;;;;70.93;23.35;;;;;;;-145.18;100.00;46685.78;4944380;28;20034;-75
2022/12/03 10:55:48;;;;;;;75.40;25.47;;;;;;;-145.18;100.00;46681.88;4931732;29;20038;-75
2022/12/03 10:58:21;;;;;;;67.53;23.52;;;;;;;-145.18;100.00;46683.84;4932195;29;20270;-75
2022/12/03 11:00:47;;;;;;;64.30;23.38;;;;;;;-145.18;100.00;46683.84;4935267;28;20662;-75
2022/12/03 11:03:18;;;;;;;63.75;22.30;;;;;;;-145.18;100.00;46689.69;4943424;28;20106;-75
2022/12/03 11:05:43;;;;;;;67.47;21.88;;;;;;;-145.18;100.00;46697.50;4954086;28;20041;-75
2022/12/03 11:08:20;;;;;;;69.33;21.17;;;;;;;-145.18;100.00;46691.66;4954051;28;20039;-75
2022/12/03 11:10:55;;;;;;;70.95;23.02;;;;;;;-145.18;100.00;46693.59;4953884;29;20027;-75